createdAt,value
2018-03-27T00:00:20.667Z,20.75
2018-03-27T00:02:46.903Z,23.40
2018-03-27T00:05:15.149Z,20.73
2018-03-27T00:07:42.119Z,23.67
2018-03-27T00:10:08.420Z,28.87
2018-03-27T00:12:34.673Z,23.80
2018-03-27T00:15:00.912Z,27.42
2018-03-27T00:17:27.191Z,22.65
2018-03-27T00:19:54.192Z,26.90
2018-03-27T00:22:20.456Z,23.30
2018-03-27T00:24:46.694Z,22.83
2018-03-27T00:27:13.479Z,25.62
2018-03-27T00:29:51.994Z,22.13
2018-03-27T00:32:30.494Z,25.10
2018-03-27T00:35:09.127Z,22.95
2018-03-27T00:37:47.623Z,29.60
2018-03-27T00:40:26.132Z,28.50
2018-03-27T00:42:53.146Z,23.05
2018-03-27T00:45:19.416Z,24.95
2018-03-27T00:47:45.650Z,22.60
2018-03-27T00:50:11.934Z,57.85
2018-03-27T00:52:38.160Z,25.20
2018-03-27T00:55:04.395Z,30.30
2018-03-27T00:57:30.638Z,23.00
2018-03-27T00:59:57.617Z,23.55
2018-03-27T01:02:23.866Z,24.15
2018-03-27T01:04:50.116Z,31.70
2018-03-27T01:07:16.355Z,29.02
2018-03-27T01:09:42.604Z,31.45
2018-03-27T01:12:09.595Z,26.48
2018-03-27T01:14:35.862Z,25.52
2018-03-27T01:17:02.126Z,35.95
2018-03-27T01:19:28.404Z,24.02
2018-03-27T01:21:54.648Z,32.50
2018-03-27T01:24:20.880Z,105.35
2018-03-27T01:26:47.117Z,38.40
2018-03-27T01:29:13.348Z,30.45
2018-03-27T01:31:39.603Z,30.10
2018-03-27T01:34:05.849Z,26.65
2018-03-27T01:36:32.104Z,31.77
2018-03-27T01:38:58.346Z,25.33
2018-03-27T01:41:24.594Z,34.00
2018-03-27T01:43:50.821Z,26.33
2018-03-27T01:46:17.819Z,30.17
2018-03-27T01:48:44.066Z,26.90
2018-03-27T01:51:11.044Z,26.60
2018-03-27T01:53:38.066Z,29.63
2018-03-27T01:56:04.311Z,24.73
2018-03-27T01:58:30.575Z,36.72
2018-03-27T02:00:56.807Z,28.73
2018-03-27T02:03:23.079Z,82.40
2018-03-27T02:05:49.327Z,40.92
2018-03-27T02:08:15.555Z,31.30
2018-03-27T02:10:41.727Z,28.40
2018-03-27T02:13:13.996Z,26.45
2018-03-27T02:15:46.347Z,29.17
2018-03-27T02:18:19.437Z,30.55
2018-03-27T02:20:52.696Z,30.48
2018-03-27T02:23:24.819Z,27.70
2018-03-27T02:25:51.065Z,32.72
2018-03-27T02:28:17.318Z,35.20
2018-03-27T02:30:43.558Z,35.88
2018-03-27T02:33:09.812Z,38.58
2018-03-27T02:35:36.791Z,28.80
2018-03-27T02:38:03.056Z,36.35
2018-03-27T02:40:29.296Z,36.05
2018-03-27T02:42:55.559Z,37.33
2018-03-27T02:45:21.820Z,32.28
2018-03-27T02:47:48.097Z,28.25
2018-03-27T02:50:15.095Z,32.85
2018-03-27T02:52:41.340Z,96.45
2018-03-27T02:55:07.611Z,36.28
2018-03-27T02:57:34.628Z,36.15
2018-03-27T03:00:00.875Z,33.30
2018-03-27T03:02:27.115Z,29.60
2018-03-27T03:04:54.162Z,28.92
2018-03-27T03:07:21.179Z,33.15
2018-03-27T03:09:47.414Z,30.37
2018-03-27T03:12:13.696Z,38.53
2018-03-27T03:14:39.964Z,30.27
2018-03-27T03:17:06.214Z,34.33
2018-03-27T03:19:32.443Z,39.88
2018-03-27T03:21:58.683Z,35.97
2018-03-27T03:24:25.699Z,31.95
2018-03-27T03:26:51.967Z,32.97
2018-03-27T03:29:18.939Z,31.20
2018-03-27T03:31:45.175Z,30.95
2018-03-27T03:34:11.423Z,37.90
2018-03-27T03:36:37.656Z,35.25
2018-03-27T03:39:04.851Z,44.45
2018-03-27T03:41:31.831Z,40.03
2018-03-27T03:43:58.155Z,34.80
2018-03-27T03:46:24.383Z,32.10
2018-03-27T03:48:50.630Z,33.20
2018-03-27T03:51:16.867Z,36.20
2018-03-27T03:53:43.095Z,38.03
2018-03-27T03:56:09.336Z,33.90
2018-03-27T03:58:35.587Z,32.05
2018-03-27T04:01:01.839Z,33.47
2018-03-27T04:03:28.071Z,28.60
2018-03-27T04:05:54.350Z,38.28
2018-03-27T04:08:20.595Z,37.60
2018-03-27T04:10:46.842Z,39.92
2018-03-27T04:13:13.087Z,39.53
2018-03-27T04:15:39.358Z,34.97
2018-03-27T04:18:05.620Z,36.85
2018-03-27T04:20:31.867Z,30.77
2018-03-27T04:22:58.839Z,44.40
2018-03-27T04:25:25.070Z,35.55
2018-03-27T04:27:51.339Z,42.17
2018-03-27T04:30:17.569Z,34.13
2018-03-27T04:32:43.824Z,33.80
2018-03-27T04:35:10.809Z,37.53
2018-03-27T04:37:37.067Z,35.70
2018-03-27T04:40:03.304Z,35.53
2018-03-27T04:42:29.579Z,35.20
2018-03-27T04:44:55.807Z,43.53
2018-03-27T04:47:22.059Z,38.45
2018-03-27T04:49:48.348Z,33.13
2018-03-27T04:52:14.592Z,38.25
2018-03-27T04:54:40.838Z,38.55
2018-03-27T04:57:07.088Z,40.00
2018-03-27T04:59:33.340Z,54.90
2018-03-27T05:01:59.576Z,41.45
2018-03-27T05:04:26.596Z,39.88
2018-03-27T05:06:52.856Z,37.35
2018-03-27T05:09:26.136Z,38.05
2018-03-27T05:11:52.377Z,33.85
2018-03-27T05:14:19.723Z,53.95
2018-03-27T05:16:46.049Z,48.30
2018-03-27T05:19:12.352Z,51.25
2018-03-27T05:21:38.616Z,42.10
2018-03-27T05:24:04.861Z,42.90
2018-03-27T05:26:31.926Z,43.40
2018-03-27T05:28:58.127Z,40.55
2018-03-27T05:31:24.378Z,39.15
2018-03-27T05:33:51.381Z,41.42
2018-03-27T05:36:17.660Z,46.03
2018-03-27T05:38:43.943Z,39.47
2018-03-27T05:41:10.178Z,39.08
2018-03-27T05:43:36.440Z,46.92
2018-03-27T05:46:02.704Z,36.40
2018-03-27T05:48:29.014Z,39.50
2018-03-27T05:50:55.265Z,48.65
2018-03-27T05:53:21.551Z,38.47
2018-03-27T05:55:48.615Z,38.88
2018-03-27T05:58:14.907Z,37.00
2018-03-27T06:00:41.155Z,36.72
2018-03-27T06:03:08.149Z,35.75
2018-03-27T06:05:34.417Z,35.00
2018-03-27T06:08:01.415Z,32.85
2018-03-27T06:10:27.694Z,34.80
2018-03-27T06:12:53.964Z,32.45
2018-03-27T06:15:20.220Z,26.58
2018-03-27T06:17:46.455Z,30.50
2018-03-27T06:20:12.747Z,32.88
2018-03-27T06:22:38.980Z,26.27
2018-03-27T06:25:05.239Z,33.75
2018-03-27T06:27:31.475Z,28.85
2018-03-27T06:29:57.787Z,29.70
2018-03-27T06:32:24.063Z,25.42
2018-03-27T06:34:51.096Z,33.78
2018-03-27T06:37:17.358Z,24.35
2018-03-27T06:39:43.603Z,29.15
2018-03-27T06:42:09.957Z,23.92
2018-03-27T06:44:36.130Z,23.17
2018-03-27T06:47:03.180Z,23.80
2018-03-27T06:49:29.442Z,25.00
2018-03-27T06:51:55.679Z,26.45
2018-03-27T06:54:21.953Z,32.45
2018-03-27T06:56:48.247Z,26.17
2018-03-27T06:59:14.520Z,29.80
2018-03-27T07:01:40.766Z,23.70
2018-03-27T07:04:07.763Z,22.58
2018-03-27T07:06:34.003Z,24.40
2018-03-27T07:09:00.277Z,26.25
2018-03-27T07:11:27.255Z,24.83
2018-03-27T07:13:53.531Z,19.48
2018-03-27T07:16:19.793Z,32.50
2018-03-27T07:18:46.057Z,21.92
2018-03-27T07:21:12.300Z,26.67
2018-03-27T07:23:39.311Z,29.02
2018-03-27T07:26:05.570Z,23.48
2018-03-27T07:28:32.539Z,30.48
2018-03-27T07:30:59.549Z,25.37
2018-03-27T07:33:25.787Z,26.62
2018-03-27T07:35:52.656Z,27.77
2018-03-27T07:38:18.947Z,26.30
2018-03-27T07:40:45.187Z,24.75
2018-03-27T07:43:11.557Z,28.17
2018-03-27T07:45:38.555Z,28.10
2018-03-27T07:48:04.815Z,26.85
2018-03-27T07:50:31.067Z,26.48
2018-03-27T07:52:58.060Z,25.15
2018-03-27T07:55:24.312Z,27.00
2018-03-27T07:57:50.575Z,25.30
2018-03-27T08:00:17.583Z,25.52
2018-03-27T08:02:44.162Z,22.92
2018-03-27T08:05:11.180Z,26.45
2018-03-27T08:07:37.417Z,26.73
2018-03-27T08:10:03.665Z,25.58
2018-03-27T08:12:30.643Z,23.87
2018-03-27T08:14:56.887Z,28.77
2018-03-27T08:17:23.133Z,26.30
2018-03-27T08:19:49.398Z,30.75
2018-03-27T08:22:16.387Z,26.67
2018-03-27T08:24:42.635Z,34.08
2018-03-27T08:27:08.886Z,29.63
2018-03-27T08:29:35.111Z,26.48
2018-03-27T08:32:01.361Z,26.10
2018-03-27T08:34:28.367Z,21.15
2018-03-27T08:36:54.612Z,22.92
2018-03-27T08:39:20.879Z,31.23
2018-03-27T08:41:47.138Z,29.83
2018-03-27T08:44:13.396Z,23.90
2018-03-27T08:46:39.657Z,25.02
2018-03-27T08:49:06.644Z,23.00
2018-03-27T08:51:32.886Z,27.05
2018-03-27T08:53:59.142Z,23.42
2018-03-27T08:56:25.511Z,23.25
2018-03-27T08:58:51.775Z,23.27
2018-03-27T09:01:18.055Z,26.23
2018-03-27T09:03:45.132Z,28.50
2018-03-27T09:06:11.347Z,28.45
2018-03-27T09:08:37.584Z,32.65
2018-03-27T09:11:03.870Z,27.08
2018-03-27T09:13:30.116Z,31.90
2018-03-27T09:15:57.168Z,31.40
2018-03-27T09:18:24.217Z,24.98
2018-03-27T09:20:50.505Z,26.92
2018-03-27T09:23:16.796Z,25.45
2018-03-27T09:25:43.095Z,25.65
2018-03-27T09:28:10.103Z,32.85
2018-03-27T09:33:10.166Z,24.35
2018-03-27T09:35:37.219Z,20.98
2018-03-27T09:38:03.464Z,23.08
2018-03-27T09:40:30.456Z,21.30
2018-03-27T09:42:56.699Z,23.60
2018-03-27T09:45:22.936Z,16.83
2018-03-27T09:47:49.191Z,22.02
2018-03-27T09:50:16.167Z,24.67
2018-03-27T09:52:42.446Z,22.58
2018-03-27T09:55:08.693Z,22.35
2018-03-27T09:57:34.970Z,24.85
2018-03-27T10:00:01.243Z,22.08
2018-03-27T10:02:27.498Z,25.52
2018-03-27T10:04:54.482Z,29.12
2018-03-27T10:07:20.811Z,23.02
2018-03-27T10:09:47.059Z,20.70
2018-03-27T10:12:13.311Z,19.83
2018-03-27T10:14:39.575Z,20.20
2018-03-27T10:17:05.836Z,20.02
2018-03-27T10:19:32.090Z,17.50
2018-03-27T10:21:58.333Z,19.60
2018-03-27T10:24:25.346Z,17.23
2018-03-27T10:26:51.586Z,19.85
2018-03-27T10:29:17.827Z,17.08
2018-03-27T10:31:44.097Z,14.85
2018-03-27T10:34:10.435Z,16.27
2018-03-27T10:36:36.697Z,15.23
2018-03-27T10:39:03.003Z,18.45
2018-03-27T10:41:29.256Z,14.70
2018-03-27T10:43:55.503Z,14.35
2018-03-27T10:46:21.767Z,16.98
2018-03-27T10:48:48.039Z,17.70
2018-03-27T10:51:14.314Z,31.12
2018-03-27T10:53:41.292Z,17.77
2018-03-27T10:56:07.544Z,14.20
2018-03-27T10:58:33.787Z,15.75
2018-03-27T11:01:00.064Z,13.57
2018-03-27T11:03:26.296Z,16.98
2018-03-27T11:05:52.549Z,14.07
2018-03-27T11:08:18.834Z,16.90
2018-03-27T11:10:45.207Z,13.95
2018-03-27T11:13:11.467Z,12.48
2018-03-27T11:15:37.769Z,12.30
2018-03-27T11:18:04.093Z,17.35
2018-03-27T11:20:30.332Z,20.30
2018-03-27T11:22:56.601Z,14.93
2018-03-27T11:25:22.844Z,11.90
2018-03-27T11:27:49.831Z,14.45
2018-03-27T11:30:16.081Z,12.30
2018-03-27T11:32:42.347Z,13.23
2018-03-27T11:35:09.351Z,13.90
2018-03-27T11:37:35.595Z,14.38
2018-03-27T11:40:01.870Z,15.68
2018-03-27T11:42:28.911Z,15.82
2018-03-27T11:44:55.964Z,16.08
2018-03-27T11:47:22.251Z,16.17
2018-03-27T11:49:48.527Z,18.35
2018-03-27T11:52:14.772Z,16.98
2018-03-27T11:54:41.116Z,15.15
2018-03-27T11:57:07.343Z,16.00
2018-03-27T11:59:33.604Z,16.85
2018-03-27T12:01:59.915Z,16.77
2018-03-27T12:04:26.190Z,18.15
2018-03-27T12:06:53.213Z,15.57
2018-03-27T12:09:19.495Z,21.87
2018-03-27T12:11:45.759Z,16.30
2018-03-27T12:14:12.019Z,16.77
2018-03-27T12:16:39.034Z,19.58
2018-03-27T12:19:05.321Z,20.73
2018-03-27T12:21:31.596Z,19.33
2018-03-27T12:23:57.887Z,22.37
2018-03-27T12:26:24.174Z,20.50
2018-03-27T12:28:50.509Z,24.17
2018-03-27T12:31:16.771Z,23.83
2018-03-27T12:33:43.007Z,21.27
2018-03-27T12:36:09.288Z,26.33
2018-03-27T12:38:36.288Z,25.45
2018-03-27T12:41:02.628Z,23.52
2018-03-27T12:43:28.871Z,29.90
2018-03-27T12:45:55.193Z,20.83
2018-03-27T12:48:21.471Z,20.80
2018-03-27T12:50:48.483Z,24.27
2018-03-27T12:53:14.805Z,22.67
2018-03-27T12:55:41.033Z,25.17
2018-03-27T12:58:07.295Z,32.95
2018-03-27T13:00:33.540Z,22.10
2018-03-27T13:02:59.827Z,19.27
2018-03-27T13:05:27.674Z,22.30
2018-03-27T13:07:53.941Z,26.27
2018-03-27T13:10:20.196Z,21.10
2018-03-27T13:12:47.227Z,25.70
2018-03-27T13:15:13.540Z,15.30
2018-03-27T13:17:39.822Z,16.42
2018-03-27T13:20:06.116Z,13.52
2018-03-27T13:22:32.487Z,12.60
2018-03-27T13:24:58.720Z,16.20
2018-03-27T13:27:24.958Z,15.10
2018-03-27T13:29:51.236Z,15.10
2018-03-27T13:32:17.612Z,15.13
2018-03-27T13:34:43.814Z,18.77
2018-03-27T13:37:10.085Z,15.95
2018-03-27T13:39:36.356Z,15.50
2018-03-27T13:42:02.651Z,21.08
2018-03-27T13:44:28.964Z,14.27
2018-03-27T13:46:55.272Z,19.83
2018-03-27T13:49:21.507Z,18.52
2018-03-27T13:51:47.748Z,17.58
2018-03-27T13:54:14.110Z,18.20
2018-03-27T13:56:40.368Z,22.85
2018-03-27T13:59:06.635Z,22.40
2018-03-27T14:01:32.887Z,16.23
2018-03-27T14:03:59.166Z,17.33
2018-03-27T14:06:26.251Z,16.90
2018-03-27T14:08:52.529Z,19.12
2018-03-27T14:11:19.579Z,20.25
2018-03-27T14:13:46.648Z,22.98
2018-03-27T14:16:12.951Z,16.08
2018-03-27T14:18:39.199Z,20.77
2018-03-27T14:21:06.211Z,19.90
2018-03-27T14:23:33.231Z,22.48
2018-03-27T14:25:59.485Z,17.85
2018-03-27T14:28:25.751Z,16.08
2018-03-27T14:30:52.000Z,21.30
2018-03-27T14:33:18.999Z,16.50
2018-03-27T14:35:45.311Z,23.58
2018-03-27T14:38:11.621Z,19.62
2018-03-27T14:40:38.572Z,19.08
2018-03-27T14:43:04.895Z,21.95
2018-03-27T14:45:31.210Z,20.75
2018-03-27T14:47:57.479Z,30.95
2018-03-27T14:50:23.744Z,20.70
2018-03-27T14:52:50.016Z,21.92
2018-03-27T14:55:16.258Z,20.80
2018-03-27T14:57:42.693Z,21.92
2018-03-27T15:00:09.011Z,23.48
2018-03-27T15:02:35.280Z,20.48
2018-03-27T15:05:01.649Z,20.17
2018-03-27T15:07:27.942Z,19.90
2018-03-27T15:09:54.210Z,24.73
2018-03-27T15:12:21.441Z,24.83
2018-03-27T15:14:48.491Z,22.30
2018-03-27T15:17:14.760Z,25.67
2018-03-27T15:19:41.031Z,25.73
2018-03-27T15:22:08.068Z,26.95
2018-03-27T15:24:34.461Z,25.70
2018-03-27T15:27:00.723Z,26.62
2018-03-27T15:29:27.135Z,32.20
2018-03-27T15:31:53.407Z,27.05
2018-03-27T15:34:19.666Z,22.77
2018-03-27T15:36:46.696Z,23.87
2018-03-27T15:39:12.968Z,27.90
2018-03-27T15:41:39.225Z,23.52
2018-03-27T15:44:05.554Z,34.25
2018-03-27T15:46:31.799Z,20.37
2018-03-27T15:48:58.065Z,16.98
2018-03-27T15:51:25.076Z,21.40
2018-03-27T15:53:51.310Z,17.95
2018-03-27T15:56:17.572Z,13.07
2018-03-27T15:58:44.555Z,15.00
2018-03-27T16:01:10.842Z,14.52
2018-03-27T16:03:37.827Z,14.48
2018-03-27T16:06:04.135Z,15.02
2018-03-27T16:08:30.375Z,14.20
2018-03-27T16:10:56.641Z,19.98
2018-03-27T16:13:22.896Z,18.05
2018-03-27T16:15:49.967Z,17.90
2018-03-27T16:18:16.952Z,17.10
2018-03-27T16:20:43.252Z,16.87
2018-03-27T16:23:09.487Z,17.92
2018-03-27T16:25:35.739Z,21.10
2018-03-27T16:28:02.007Z,12.93
2018-03-27T16:30:28.281Z,10.20
2018-03-27T16:32:54.583Z,13.95
2018-03-27T16:35:21.587Z,14.30
2018-03-27T16:37:47.885Z,13.00
2018-03-27T16:40:14.151Z,14.98
2018-03-27T16:42:40.455Z,13.68
2018-03-27T16:45:06.712Z,15.25
2018-03-27T16:47:32.999Z,15.77
2018-03-27T16:49:59.231Z,13.80
2018-03-27T16:52:25.493Z,16.50
2018-03-27T16:54:51.750Z,13.80
2018-03-27T16:57:18.044Z,16.75
2018-03-27T16:59:44.312Z,15.60
2018-03-27T17:02:10.625Z,17.17
2018-03-27T17:04:36.907Z,18.15
2018-03-27T17:07:03.197Z,18.42
2018-03-27T17:09:30.192Z,18.12
2018-03-27T17:11:56.458Z,16.37
2018-03-27T17:14:22.760Z,16.98
2018-03-27T17:16:49.100Z,17.92
2018-03-27T17:19:15.377Z,16.40
2018-03-27T17:21:42.412Z,17.55
2018-03-27T17:24:08.700Z,14.90
2018-03-27T17:26:34.982Z,17.02
2018-03-27T17:29:02.039Z,18.67
2018-03-27T17:31:29.101Z,24.02
2018-03-27T17:33:55.324Z,21.87
2018-03-27T17:36:21.575Z,16.85
2018-03-27T17:38:47.855Z,21.55
2018-03-27T17:41:14.099Z,17.98
2018-03-27T17:43:41.104Z,22.08
2018-03-27T17:46:07.349Z,20.30
2018-03-27T17:48:33.615Z,23.40
2018-03-27T17:51:00.638Z,22.23
2018-03-27T17:53:26.923Z,24.98
2018-03-27T17:55:53.190Z,26.10
2018-03-27T17:58:19.441Z,27.50
2018-03-27T18:00:45.680Z,26.12
2018-03-27T18:03:12.676Z,23.87
2018-03-27T18:05:38.959Z,38.83
2018-03-27T18:08:05.951Z,29.45
2018-03-27T18:10:32.231Z,23.17
2018-03-27T18:12:58.487Z,29.75
2018-03-27T18:15:24.826Z,32.58
2018-03-27T18:17:51.108Z,33.25
2018-03-27T18:20:18.119Z,36.15
2018-03-27T18:22:44.456Z,35.25
2018-03-27T18:25:10.737Z,32.03
2018-03-27T18:27:37.043Z,35.35
2018-03-27T18:30:03.323Z,43.25
2018-03-27T18:32:29.596Z,41.88
2018-03-27T18:34:55.859Z,45.42
2018-03-27T18:37:22.191Z,39.58
2018-03-27T18:39:48.482Z,38.13
2018-03-27T18:42:14.756Z,43.35
2018-03-27T18:44:41.000Z,41.33
2018-03-27T18:47:07.343Z,49.40
2018-03-27T18:49:33.631Z,39.78
2018-03-27T18:52:00.692Z,47.17
2018-03-27T18:54:26.940Z,43.95
2018-03-27T18:56:53.564Z,46.42
2018-03-27T18:59:19.812Z,44.00
2018-03-27T19:01:46.079Z,49.22
2018-03-27T19:04:12.372Z,41.70
2018-03-27T19:06:38.619Z,44.50
2018-03-27T19:09:04.915Z,39.80
2018-03-27T19:11:31.167Z,45.10
2018-03-27T19:13:57.475Z,39.65
2018-03-27T19:16:23.779Z,39.92
2018-03-27T19:18:50.800Z,37.55
2018-03-27T19:21:17.047Z,42.80
2018-03-27T19:23:44.119Z,38.97
2018-03-27T19:26:10.409Z,33.10
2018-03-27T19:28:36.688Z,35.95
2018-03-27T19:31:03.019Z,34.75
2018-03-27T19:33:29.253Z,40.22
2018-03-27T19:35:55.509Z,42.08
2018-03-27T19:38:21.771Z,35.67
2018-03-27T19:40:48.054Z,37.80
2018-03-27T19:43:14.295Z,29.30
2018-03-27T19:45:40.586Z,27.45
2018-03-27T19:48:06.858Z,26.25
2018-03-27T19:50:33.124Z,36.15
2018-03-27T19:52:59.359Z,32.30
2018-03-27T19:55:26.372Z,34.60
2018-03-27T19:57:52.665Z,35.85
2018-03-27T20:00:18.929Z,37.05
2018-03-27T20:02:45.176Z,34.78
2018-03-27T20:05:11.513Z,35.30
2018-03-27T20:07:39.464Z,37.28
2018-03-27T20:10:05.748Z,41.33
2018-03-27T20:12:32.037Z,41.40
2018-03-27T20:14:58.873Z,45.75
2018-03-27T20:17:25.154Z,39.22
2018-03-27T20:19:51.405Z,36.10
2018-03-27T20:22:17.673Z,38.05
2018-03-27T20:24:44.679Z,40.47
2018-03-27T20:27:10.960Z,40.78
2018-03-27T20:29:37.954Z,46.35
2018-03-27T20:32:04.248Z,42.75
2018-03-27T20:34:30.499Z,40.08
2018-03-27T20:36:56.783Z,39.35
2018-03-27T20:39:23.027Z,36.00
2018-03-27T20:41:50.044Z,39.28
2018-03-27T20:44:16.364Z,39.30
2018-03-27T20:46:42.661Z,41.92
2018-03-27T20:49:08.941Z,36.50
2018-03-27T20:51:35.164Z,41.58
2018-03-27T20:54:01.421Z,36.28
2018-03-27T20:56:28.431Z,43.03
2018-03-27T20:58:54.703Z,41.05
2018-03-27T21:01:21.682Z,37.15
2018-03-27T21:03:48.000Z,40.80
2018-03-27T21:06:14.317Z,38.20
2018-03-27T21:08:41.407Z,40.90
2018-03-27T21:11:07.665Z,36.92
2018-03-27T21:13:33.960Z,36.95
2018-03-27T21:16:00.216Z,37.63
2018-03-27T21:18:26.487Z,39.85
2018-03-27T21:20:52.758Z,37.10
2018-03-27T21:23:19.032Z,39.55
2018-03-27T21:25:45.304Z,44.80
2018-03-27T21:28:11.554Z,41.60
2018-03-27T21:30:37.805Z,41.03
2018-03-27T21:33:04.042Z,46.78
2018-03-27T21:35:31.065Z,44.47
2018-03-27T21:37:57.308Z,43.00
2018-03-27T21:40:23.588Z,39.53
2018-03-27T21:42:49.850Z,34.05
2018-03-27T21:45:16.147Z,50.85
2018-03-27T21:47:42.427Z,45.97
2018-03-27T21:50:08.712Z,45.55
2018-03-27T21:52:34.958Z,46.37
2018-03-27T21:55:01.227Z,44.22
2018-03-27T21:57:27.455Z,43.28
2018-03-27T21:59:53.985Z,40.08
2018-03-27T22:02:20.991Z,39.22
2018-03-27T22:04:47.243Z,42.92
2018-03-27T22:07:13.496Z,48.47
2018-03-27T22:09:40.487Z,40.70
2018-03-27T22:12:06.756Z,44.45
2018-03-27T22:14:33.004Z,44.63
2018-03-27T22:17:00.070Z,39.05
2018-03-27T22:19:27.040Z,50.33
2018-03-27T22:21:53.303Z,43.90
2018-03-27T22:24:19.553Z,38.22
2018-03-27T22:26:45.811Z,42.70
2018-03-27T22:29:12.047Z,37.72
2018-03-27T22:31:38.295Z,34.72
2018-03-27T22:34:04.571Z,34.83
2018-03-27T22:36:30.832Z,40.85
2018-03-27T22:38:57.078Z,41.05
2018-03-27T22:41:23.392Z,38.65
2018-03-27T22:43:49.772Z,38.95
2018-03-27T22:46:16.044Z,36.25
2018-03-27T22:48:43.099Z,39.45
2018-03-27T22:51:09.464Z,40.78
2018-03-27T22:53:35.724Z,37.90
2018-03-27T22:56:02.023Z,28.65
2018-03-27T22:58:28.343Z,39.92
2018-03-27T23:00:54.623Z,32.75
2018-03-27T23:03:20.885Z,29.08
2018-03-27T23:05:47.144Z,30.55
2018-03-27T23:08:13.430Z,27.30
2018-03-27T23:10:39.703Z,27.75
2018-03-27T23:13:06.246Z,30.50
2018-03-27T23:15:32.495Z,28.67
2018-03-27T23:17:58.762Z,24.10
2018-03-27T23:20:25.040Z,25.55
2018-03-27T23:22:51.427Z,29.17
2018-03-27T23:25:17.691Z,21.52
2018-03-27T23:27:44.024Z,23.23
2018-03-27T23:30:10.301Z,22.20
2018-03-27T23:32:37.328Z,19.95
2018-03-27T23:35:03.615Z,25.15
2018-03-27T23:37:29.872Z,19.45
2018-03-27T23:39:56.142Z,18.73
2018-03-27T23:42:23.139Z,23.75
2018-03-27T23:44:49.399Z,20.52
2018-03-27T23:47:15.639Z,22.10
2018-03-27T23:49:42.635Z,18.87
2018-03-27T23:52:08.880Z,18.00
2018-03-27T23:54:35.153Z,20.95
2018-03-27T23:57:02.172Z,25.52
2018-03-27T23:59:28.435Z,17.60
